sensor_id;sensor_type;location;lat;lon;timestamp;temperature;humidity
33739;DHT22;20063;51.730;11.110;2023-03-14T16:08:10;4.20;99.90
33739;DHT22;20063;51.730;11.110;2023-03-14T16:10:36;3.90;99.90
33739;DHT22;20063;51.730;11.110;2023-03-14T16:13:03;3.80;99.90
33739;DHT22;20063;51.730;11.110;2023-03-14T16:15:29;3.70;99.90
33739;DHT22;20063;51.730;11.110;2023-03-14T16:17:55;3.60;99.90
33739;DHT22;20063;51.730;11.110;2023-03-14T16:20:22;3.50;99.90
33739;DHT22;20063;51.730;11.110;2023-03-14T16:22:48;3.50;99.90
33739;DHT22;20063;51.730;11.110;2023-03-14T16:25:14;3.50;99.90
33739;DHT22;20063;51.730;11.110;2023-03-14T16:27:43;3.50;99.90
33739;DHT22;20063;51.730;11.110;2023-03-14T16:30:09;3.50;99.90
33739;DHT22;20063;51.730;11.110;2023-03-14T16:32:35;3.50;99.90
33739;DHT22;20063;51.730;11.110;2023-03-14T16:35:01;3.50;99.90
33739;DHT22;20063;51.730;11.110;2023-03-14T16:37:26;3.60;99.90
33739;DHT22;20063;51.730;11.110;2023-03-14T16:39:53;3.60;99.90
33739;DHT22;20063;51.730;11.110;2023-03-14T16:42:20;3.70;99.90
33739;DHT22;20063;51.730;11.110;2023-03-14T16:44:45;3.70;99.90
33739;DHT22;20063;51.730;11.110;2023-03-14T16:47:11;3.80;99.90
33739;DHT22;20063;51.730;11.110;2023-03-14T16:49:37;3.80;99.90
33739;DHT22;20063;51.730;11.110;2023-03-14T16:52:03;3.90;99.90
33739;DHT22;20063;51.730;11.110;2023-03-14T16:54:28;4.00;99.90
33739;DHT22;20063;51.730;11.110;2023-03-14T16:57:03;4.00;99.90
33739;DHT22;20063;51.730;11.110;2023-03-14T16:59:29;4.10;99.90
33739;DHT22;20063;51.730;11.110;2023-03-14T17:01:55;4.10;99.90
33739;DHT22;20063;51.730;11.110;2023-03-14T17:04:21;4.20;99.90
33739;DHT22;20063;51.730;11.110;2023-03-14T17:06:48;4.20;99.90
33739;DHT22;20063;51.730;11.110;2023-03-14T17:09:13;4.20;99.90
33739;DHT22;20063;51.730;11.110;2023-03-14T17:11:39;4.30;99.90
33739;DHT22;20063;51.730;11.110;2023-03-14T17:14:04;4.30;99.90
33739;DHT22;20063;51.730;11.110;2023-03-14T17:16:30;4.30;99.90
33739;DHT22;20063;51.730;11.110;2023-03-14T17:18:56;4.30;99.90
33739;DHT22;20063;51.730;11.110;2023-03-14T17:21:23;4.30;99.90
33739;DHT22;20063;51.730;11.110;2023-03-14T17:23:49;4.30;99.90
33739;DHT22;20063;51.730;11.110;2023-03-14T17:26:14;4.30;99.90
33739;DHT22;20063;51.730;11.110;2023-03-14T17:28:41;4.30;99.90
33739;DHT22;20063;51.730;11.110;2023-03-14T17:31:08;4.30;99.90
33739;DHT22;20063;51.730;11.110;2023-03-14T17:33:35;4.30;99.90
33739;DHT22;20063;51.730;11.110;2023-03-14T17:36:02;4.20;99.90
33739;DHT22;20063;51.730;11.110;2023-03-14T17:38:28;4.20;99.90
33739;DHT22;20063;51.730;11.110;2023-03-14T17:40:58;4.20;99.90
33739;DHT22;20063;51.730;11.110;2023-03-14T17:43:23;4.20;99.90
33739;DHT22;20063;51.730;11.110;2023-03-14T17:46:04;4.20;99.90
33739;DHT22;20063;51.730;11.110;2023-03-14T17:48:31;4.20;99.90
33739;DHT22;20063;51.730;11.110;2023-03-14T17:50:56;4.20;99.90
33739;DHT22;20063;51.730;11.110;2023-03-14T17:53:23;4.20;99.90
33739;DHT22;20063;51.730;11.110;2023-03-14T17:55:49;4.30;99.90
33739;DHT22;20063;51.730;11.110;2023-03-14T17:58:16;4.30;99.90
33739;DHT22;20063;51.730;11.110;2023-03-14T18:00:42;4.30;99.90
33739;DHT22;20063;51.730;11.110;2023-03-14T18:03:07;4.20;99.90
33739;DHT22;20063;51.730;11.110;2023-03-14T18:05:33;4.20;99.90
33739;DHT22;20063;51.730;11.110;2023-03-14T18:08:02;4.20;99.90
33739;DHT22;20063;51.730;11.110;2023-03-14T18:10:29;4.20;99.90
33739;DHT22;20063;51.730;11.110;2023-03-14T18:12:54;4.30;99.90
33739;DHT22;20063;51.730;11.110;2023-03-14T18:15:20;4.30;99.90
33739;DHT22;20063;51.730;11.110;2023-03-14T18:17:46;4.30;99.90
33739;DHT22;20063;51.730;11.110;2023-03-14T18:20:11;4.30;99.90
33739;DHT22;20063;51.730;11.110;2023-03-14T18:22:38;4.30;99.90
33739;DHT22;20063;51.730;11.110;2023-03-14T18:25:05;4.30;99.90
33739;DHT22;20063;51.730;11.110;2023-03-14T18:27:30;4.30;99.90
33739;DHT22;20063;51.730;11.110;2023-03-14T18:29:56;4.30;99.90
33739;DHT22;20063;51.730;11.110;2023-03-14T18:32:23;4.30;99.90
33739;DHT22;20063;51.730;11.110;2023-03-14T18:34:48;4.30;99.90
33739;DHT22;20063;51.730;11.110;2023-03-14T18:37:14;4.30;99.90
33739;DHT22;20063;51.730;11.110;2023-03-14T18:39:40;4.30;99.90
33739;DHT22;20063;51.730;11.110;2023-03-14T18:42:09;4.30;99.90
33739;DHT22;20063;51.730;11.110;2023-03-14T18:44:34;4.30;99.90
33739;DHT22;20063;51.730;11.110;2023-03-14T18:47:01;4.30;99.90
33739;DHT22;20063;51.730;11.110;2023-03-14T18:49:27;4.40;99.90
33739;DHT22;20063;51.730;11.110;2023-03-14T18:51:52;4.30;99.90
33739;DHT22;20063;51.730;11.110;2023-03-14T18:54:18;4.30;99.90
33739;DHT22;20063;51.730;11.110;2023-03-14T18:56:44;4.30;99.90
33739;DHT22;20063;51.730;11.110;2023-03-14T18:59:13;4.30;99.90
33739;DHT22;20063;51.730;11.110;2023-03-14T19:01:38;4.30;99.90
33739;DHT22;20063;51.730;11.110;2023-03-14T19:04:04;4.20;99.90
33739;DHT22;20063;51.730;11.110;2023-03-14T19:06:33;4.20;99.90
33739;DHT22;20063;51.730;11.110;2023-03-14T19:08:59;4.20;99.90
33739;DHT22;20063;51.730;11.110;2023-03-14T19:11:25;4.20;99.90
33739;DHT22;20063;51.730;11.110;2023-03-14T19:13:51;4.20;99.90
33739;DHT22;20063;51.730;11.110;2023-03-14T19:16:18;4.10;99.90
33739;DHT22;20063;51.730;11.110;2023-03-14T19:18:46;4.10;99.90
33739;DHT22;20063;51.730;11.110;2023-03-14T19:21:13;4.10;99.90
33739;DHT22;20063;51.730;11.110;2023-03-14T19:23:40;4.10;99.90
33739;DHT22;20063;51.730;11.110;2023-03-14T19:26:06;4.00;99.90
33739;DHT22;20063;51.730;11.110;2023-03-14T19:28:34;4.00;99.90
33739;DHT22;20063;51.730;11.110;2023-03-14T19:31:01;4.00;99.90
33739;DHT22;20063;51.730;11.110;2023-03-14T19:33:28;4.10;99.90
33739;DHT22;20063;51.730;11.110;2023-03-14T19:35:56;4.00;99.90
33739;DHT22;20063;51.730;11.110;2023-03-14T19:38:21;4.00;99.90
33739;DHT22;20063;51.730;11.110;2023-03-14T19:40:47;4.00;99.90
33739;DHT22;20063;51.730;11.110;2023-03-14T19:43:15;4.00;99.90
33739;DHT22;20063;51.730;11.110;2023-03-14T19:45:42;4.00;99.90
33739;DHT22;20063;51.730;11.110;2023-03-14T19:48:10;4.00;99.90
33739;DHT22;20063;51.730;11.110;2023-03-14T19:50:37;4.00;99.90
33739;DHT22;20063;51.730;11.110;2023-03-14T19:53:03;4.00;99.90
33739;DHT22;20063;51.730;11.110;2023-03-14T19:56:08;4.00;99.90
33739;DHT22;20063;51.730;11.110;2023-03-14T19:58:34;4.00;99.90
33739;DHT22;20063;51.730;11.110;2023-03-14T20:01:01;4.00;99.90
33739;DHT22;20063;51.730;11.110;2023-03-14T20:03:27;4.00;99.90
33739;DHT22;20063;51.730;11.110;2023-03-14T20:05:54;3.90;99.90
33739;DHT22;20063;51.730;11.110;2023-03-14T20:08:23;3.90;99.90
33739;DHT22;20063;51.730;11.110;2023-03-14T20:10:48;3.90;99.90
33739;DHT22;20063;51.730;11.110;2023-03-14T20:13:14;3.80;99.90
33739;DHT22;20063;51.730;11.110;2023-03-14T20:15:40;3.80;99.90
33739;DHT22;20063;51.730;11.110;2023-03-14T20:18:07;3.80;99.90
33739;DHT22;20063;51.730;11.110;2023-03-14T20:20:32;3.80;99.90
33739;DHT22;20063;51.730;11.110;2023-03-14T20:22:59;3.70;99.90
33739;DHT22;20063;51.730;11.110;2023-03-14T20:25:24;3.70;99.90
33739;DHT22;20063;51.730;11.110;2023-03-14T20:27:50;3.70;99.90
33739;DHT22;20063;51.730;11.110;2023-03-14T20:30:20;3.70;99.90
33739;DHT22;20063;51.730;11.110;2023-03-14T20:32:48;3.70;99.90
33739;DHT22;20063;51.730;11.110;2023-03-14T20:35:15;3.70;99.90
33739;DHT22;20063;51.730;11.110;2023-03-14T20:37:52;3.70;99.90
33739;DHT22;20063;51.730;11.110;2023-03-14T20:40:19;3.70;99.90
33739;DHT22;20063;51.730;11.110;2023-03-14T20:42:45;3.60;99.90
33739;DHT22;20063;51.730;11.110;2023-03-14T20:45:11;3.60;99.90
33739;DHT22;20063;51.730;11.110;2023-03-14T20:47:37;3.60;99.90
33739;DHT22;20063;51.730;11.110;2023-03-14T20:50:03;3.60;99.90
33739;DHT22;20063;51.730;11.110;2023-03-14T20:52:29;3.60;99.90
33739;DHT22;20063;51.730;11.110;2023-03-14T20:54:55;3.50;99.90
33739;DHT22;20063;51.730;11.110;2023-03-14T20:57:20;3.50;99.90
33739;DHT22;20063;51.730;11.110;2023-03-14T20:59:46;3.50;99.90
33739;DHT22;20063;51.730;11.110;2023-03-14T21:02:12;3.50;99.90
33739;DHT22;20063;51.730;11.110;2023-03-14T21:04:38;3.50;99.90
33739;DHT22;20063;51.730;11.110;2023-03-14T21:07:04;3.50;99.90
33739;DHT22;20063;51.730;11.110;2023-03-14T21:09:29;3.50;99.90
33739;DHT22;20063;51.730;11.110;2023-03-14T21:11:58;3.50;99.90
33739;DHT22;20063;51.730;11.110;2023-03-14T21:14:23;3.50;99.90
33739;DHT22;20063;51.730;11.110;2023-03-14T21:16:49;3.50;99.90
33739;DHT22;20063;51.730;11.110;2023-03-14T21:19:20;3.60;99.90
33739;DHT22;20063;51.730;11.110;2023-03-14T21:21:45;3.50;99.90
33739;DHT22;20063;51.730;11.110;2023-03-14T21:24:11;3.50;99.90
33739;DHT22;20063;51.730;11.110;2023-03-14T21:26:40;3.50;99.90
33739;DHT22;20063;51.730;11.110;2023-03-14T21:29:06;3.50;99.90
33739;DHT22;20063;51.730;11.110;2023-03-14T21:31:31;3.50;99.90
33739;DHT22;20063;51.730;11.110;2023-03-14T21:33:58;3.50;99.90
33739;DHT22;20063;51.730;11.110;2023-03-14T21:36:24;3.40;99.90
33739;DHT22;20063;51.730;11.110;2023-03-14T21:38:50;3.40;99.90
33739;DHT22;20063;51.730;11.110;2023-03-14T21:41:15;3.40;99.90
33739;DHT22;20063;51.730;11.110;2023-03-14T21:43:41;3.40;99.90
33739;DHT22;20063;51.730;11.110;2023-03-14T21:46:10;3.40;99.90
33739;DHT22;20063;51.730;11.110;2023-03-14T21:48:35;3.40;99.90
33739;DHT22;20063;51.730;11.110;2023-03-14T21:51:05;3.40;99.90
33739;DHT22;20063;51.730;11.110;2023-03-14T21:53:32;3.40;99.90
33739;DHT22;20063;51.730;11.110;2023-03-14T21:55:58;3.30;99.90
33739;DHT22;20063;51.730;11.110;2023-03-14T21:58:24;3.30;99.90
33739;DHT22;20063;51.730;11.110;2023-03-14T22:00:49;3.30;99.90
33739;DHT22;20063;51.730;11.110;2023-03-14T22:03:19;3.30;99.90
33739;DHT22;20063;51.730;11.110;2023-03-14T22:05:48;3.20;99.90
33739;DHT22;20063;51.730;11.110;2023-03-14T22:08:15;3.20;99.90
33739;DHT22;20063;51.730;11.110;2023-03-14T22:10:51;3.20;99.90
33739;DHT22;20063;51.730;11.110;2023-03-14T22:13:17;3.20;99.90
33739;DHT22;20063;51.730;11.110;2023-03-14T22:15:43;3.20;99.90
33739;DHT22;20063;51.730;11.110;2023-03-14T22:18:09;3.20;99.90
33739;DHT22;20063;51.730;11.110;2023-03-14T22:20:34;3.10;99.90
33739;DHT22;20063;51.730;11.110;2023-03-14T22:23:00;3.10;99.90
33739;DHT22;20063;51.730;11.110;2023-03-14T22:25:26;3.10;99.90
33739;DHT22;20063;51.730;11.110;2023-03-14T22:27:52;3.10;99.90
33739;DHT22;20063;51.730;11.110;2023-03-14T22:30:17;3.10;99.90
33739;DHT22;20063;51.730;11.110;2023-03-14T22:32:43;3.10;99.90
33739;DHT22;20063;51.730;11.110;2023-03-14T22:35:09;3.10;99.90
33739;DHT22;20063;51.730;11.110;2023-03-14T22:37:35;3.10;99.90
33739;DHT22;20063;51.730;11.110;2023-03-14T22:40:02;3.10;99.90
33739;DHT22;20063;51.730;11.110;2023-03-14T22:42:28;3.10;99.90
33739;DHT22;20063;51.730;11.110;2023-03-14T22:44:53;3.10;99.90
33739;DHT22;20063;51.730;11.110;2023-03-14T22:47:19;3.00;99.90
33739;DHT22;20063;51.730;11.110;2023-03-14T22:49:45;3.00;99.90
33739;DHT22;20063;51.730;11.110;2023-03-14T22:52:11;3.00;99.90
33739;DHT22;20063;51.730;11.110;2023-03-14T22:54:37;3.00;99.90
33739;DHT22;20063;51.730;11.110;2023-03-14T22:57:03;3.00;99.90
33739;DHT22;20063;51.730;11.110;2023-03-14T22:59:29;3.10;99.90
33739;DHT22;20063;51.730;11.110;2023-03-14T23:01:55;3.00;99.90
33739;DHT22;20063;51.730;11.110;2023-03-14T23:04:24;3.10;99.90
33739;DHT22;20063;51.730;11.110;2023-03-14T23:06:49;3.10;99.90
33739;DHT22;20063;51.730;11.110;2023-03-14T23:09:15;3.10;99.90
33739;DHT22;20063;51.730;11.110;2023-03-14T23:11:40;3.00;99.90
33739;DHT22;20063;51.730;11.110;2023-03-14T23:14:06;3.00;99.90
33739;DHT22;20063;51.730;11.110;2023-03-14T23:16:32;3.10;99.90
33739;DHT22;20063;51.730;11.110;2023-03-14T23:18:58;3.10;99.90
33739;DHT22;20063;51.730;11.110;2023-03-14T23:21:23;3.10;99.90
33739;DHT22;20063;51.730;11.110;2023-03-14T23:23:50;3.00;99.90
33739;DHT22;20063;51.730;11.110;2023-03-14T23:26:18;3.00;99.90
33739;DHT22;20063;51.730;11.110;2023-03-14T23:28:47;3.00;99.90
33739;DHT22;20063;51.730;11.110;2023-03-14T23:31:13;3.00;99.90
33739;DHT22;20063;51.730;11.110;2023-03-14T23:33:39;3.00;99.90
33739;DHT22;20063;51.730;11.110;2023-03-14T23:36:07;3.00;99.90
33739;DHT22;20063;51.730;11.110;2023-03-14T23:38:33;3.00;99.90
33739;DHT22;20063;51.730;11.110;2023-03-14T23:41:00;3.00;99.90
33739;DHT22;20063;51.730;11.110;2023-03-14T23:43:28;2.90;99.90
33739;DHT22;20063;51.730;11.110;2023-03-14T23:45:55;3.00;99.90
33739;DHT22;20063;51.730;11.110;2023-03-14T23:48:26;2.90;99.90
33739;DHT22;20063;51.730;11.110;2023-03-14T23:50:55;2.90;99.90
33739;DHT22;20063;51.730;11.110;2023-03-14T23:53:22;3.00;99.90
33739;DHT22;20063;51.730;11.110;2023-03-14T23:55:48;2.90;99.90
33739;DHT22;20063;51.730;11.110;2023-03-14T23:58:13;2.90;99.90
